Time;durP1;ratioP1;P1;durP2;ratioP2;P2;SDS_P1;SDS_P2;PMS_P1;PMS_P2;Temp;Humidity;BMP_temperature;BMP_pressure;BME280_temperature;BME280_humidity;BME280_pressure;Samples;Min_cycle;Max_cycle;Signal;HPM_P1;HPM_P2
2022/03/12 00:45:42;;;;;;;;;;;;;;;9.53;37.99;98827.09;5016557;28;19917;-61
2022/03/12 01:35:50;;;;;;;;;;;;;;;9.44;38.82;98842.81;4996441;28;19917;-61
2022/03/12 01:41:28;;;;;;;;;;;;;;;9.34;38.42;98837.09;4997488;28;20016;-59
2022/03/12 02:15:43;;;;;;;;;;;;;;;9.12;40.24;98849.75;5017052;28;19924;-61
2022/03/12 02:46:02;;;;;;;;;;;;;;;9.31;38.37;98846.66;5015413;28;19913;-59
2022/03/12 03:25:42;;;;;;;;;;;;;;;9.31;41.65;98887.78;4995833;28;19965;-61
2022/03/12 04:05:42;;;;;;;;;;;;;;;8.56;41.02;98947.13;5017726;28;19973;-61
2022/03/12 05:15:45;;;;;;;;;;;;;;;8.88;46.66;98991.69;5015635;28;19992;-61
2022/03/12 05:46:01;;;;;;;;;;;;;;;8.02;50.26;99020.13;5016825;28;19928;-61
2022/03/12 07:20:45;;;;;;;;;;;;;;;9.18;64.36;99072.25;4988905;28;19940;-62
2022/03/12 07:26:20;;;;;;;;;;;;;;;9.16;65.49;99064.56;4999604;28;19936;-61
2022/03/12 07:56:38;;;;;;;;;;;;;;;9.28;69.62;99089.13;4999630;28;19929;-62
2022/03/12 08:05:45;;;;;;;;;;;;;;;9.34;71.24;99083.00;5015081;28;19921;-60
2022/03/12 08:35:45;;;;;;;;;;;;;;;10.97;70.49;99094.63;4993577;28;19967;-61
2022/03/12 08:38:10;;;;;;;;;;;;;;;11.47;66.21;99096.41;4993750;28;20351;-61
2022/03/12 08:40:36;;;;;;;;;;;;;;;11.95;63.17;99099.94;4994940;28;19926;-62
2022/03/12 08:43:02;;;;;;;;;;;;;;;11.50;65.77;99104.91;4996576;28;19992;-61
2022/03/12 08:45:45;;;;;;;;;;;;;;;11.92;65.45;99101.72;4993389;28;19921;-62
2022/03/12 08:48:13;;;;;;;;;;;;;;;11.86;65.35;99106.22;4993941;28;19922;-61
2022/03/12 08:56:46;;;;;;;;;;;;;;;11.55;69.52;99122.78;4983826;28;19922;-61
2022/03/12 08:59:12;;;;;;;;;;;;;;;11.94;66.04;99114.59;4974369;28;19918;-60
2022/03/12 09:01:38;;;;;;;;;;;;;;;11.77;67.44;99127.19;4975034;28;19926;-59
2022/03/12 09:04:03;;;;;;;;;;;;;;;11.76;68.50;99126.38;4973510;28;19933;-60
2022/03/12 09:06:31;;;;;;;;;;;;;;;11.99;66.84;99133.31;4982929;28;20068;-62
2022/03/12 09:08:58;;;;;;;;;;;;;;;11.44;70.53;99135.19;4974020;28;19933;-61
2022/03/12 09:11:23;;;;;;;;;;;;;;;12.62;68.02;99125.84;4988134;28;19925;-61
2022/03/12 09:13:50;;;;;;;;;;;;;;;12.11;69.81;99134.63;4975271;28;20545;-62
2022/03/12 09:16:17;;;;;;;;;;;;;;;11.91;68.59;99138.78;4975529;28;19917;-61
2022/03/12 09:18:44;;;;;;;;;;;;;;;11.59;69.78;99133.84;4987651;28;19921;-61
2022/03/12 09:21:10;;;;;;;;;;;;;;;11.99;68.77;99133.31;4990195;28;19918;-61
2022/03/12 09:23:35;;;;;;;;;;;;;;;12.35;68.10;99130.31;4969698;28;19928;-61
2022/03/12 09:26:01;;;;;;;;;;;;;;;12.97;64.79;99129.63;4987210;28;20493;-62
2022/03/12 09:28:26;;;;;;;;;;;;;;;13.36;64.32;99120.34;4969451;28;19922;-62
2022/03/12 09:46:09;;;;;;;;;;;;;;;13.23;73.18;99112.25;4980469;28;19918;-61
2022/03/12 09:48:34;;;;;;;;;;;;;;;13.89;71.99;99124.16;4983667;28;19925;-61
2022/03/12 09:51:01;;;;;;;;;;;;;;;13.96;67.98;99125.59;4983519;28;20016;-61
2022/03/12 09:53:26;;;;;;;;;;;;;;;13.69;69.48;99131.03;4984217;28;20948;-60
2022/03/12 09:55:51;;;;;;;;;;;;;;;14.36;68.18;99128.97;4983957;28;19922;-61
2022/03/12 09:58:17;;;;;;;;;;;;;;;14.11;64.83;99134.41;4984812;28;20020;-62
2022/03/12 10:03:45;;;;;;;;;;;;;;;14.48;60.97;99132.75;4982178;28;20395;-60
2022/03/12 10:06:11;;;;;;;;;;;;;;;15.21;60.27;99134.50;4984341;28;19921;-62
2022/03/12 10:17:49;;;;;;;;;;;;;;;15.42;58.63;99135.19;4983567;28;19925;-62
2022/03/12 10:35:46;;;;;;;;;;;;;;;15.15;61.43;99128.78;4982798;28;19922;-61
2022/03/12 10:56:47;;;;;;;;;;;;;;;15.91;61.60;99141.44;4988991;28;19925;-62
2022/03/12 11:05:46;;;;;;;;;;;;;;;16.34;61.00;99136.59;5000276;28;19925;-62
2022/03/12 12:35:48;;;;;;;;;;;;;;;19.83;53.65;99121.59;4961683;28;20032;-62
2022/03/12 13:05:49;;;;;;;;;;;;;;;18.98;64.77;99102.84;4988077;28;19980;-62
2022/03/12 13:35:50;;;;;;;;;;;;;;;20.28;55.52;99072.28;4992998;28;20018;-62
2022/03/12 14:25:53;;;;;;;;;;;;;;;19.42;54.08;99076.38;4990293;28;20368;-61
2022/03/12 14:37:33;;;;;;;;;;;;;;;19.81;52.20;99068.59;4996262;28;19917;-60
2022/03/12 14:39:58;;;;;;;;;;;;;;;20.54;54.18;99072.19;4977876;28;19917;-61
2022/03/12 14:45:48;;;;;;;;;;;;;;;18.70;57.69;99073.28;4992649;28;20392;-61
2022/03/12 15:06:38;;;;;;;;;;;;;;;18.57;56.20;99064.56;5002509;28;20091;-61
2022/03/12 15:09:05;;;;;;;;;;;;;;;19.27;55.20;99060.91;5018180;28;19917;-61
2022/03/12 15:17:39;;;;;;;;;;;;;;;17.72;67.65;99066.31;5018031;28;19925;-62
2022/03/12 15:35:47;;;;;;;;;;;;;;;17.77;66.23;99065.13;5015018;28;19929;-60
2022/03/12 16:05:52;;;;;;;;;;;;;;;17.49;61.89;99065.09;5014656;28;19918;-59
2022/03/12 16:45:52;;;;;;;;;;;;;;;17.16;64.27;99047.09;5017066;28;20294;-61
2022/03/12 18:36:39;;;;;;;;;;;;;;;14.80;84.54;99053.50;4994910;28;20701;-60
2022/03/12 18:39:13;;;;;;;;;;;;;;;14.68;86.66;99052.34;4992857;28;19921;-60
2022/03/12 18:41:41;;;;;;;;;;;;;;;15.48;78.58;99049.22;4980388;28;20465;-60
2022/03/12 18:50:53;;;;;;;;;;;;;;;13.91;90.11;99060.19;5013003;28;19913;-61
2022/03/12 18:56:47;;;;;;;;;;;;;;;13.67;92.03;99052.63;5013596;28;20037;-61
2022/03/12 18:59:14;;;;;;;;;;;;;;;13.49;95.26;99053.41;5017845;28;19913;-58
2022/03/12 19:01:41;;;;;;;;;;;;;;;12.96;96.46;99055.56;5018012;28;20247;-58
2022/03/12 19:04:06;;;;;;;;;;;;;;;12.94;98.65;99052.22;4998851;28;19951;-58
2022/03/12 19:06:35;;;;;;;;;;;;;;;13.27;96.97;99049.13;5000254;28;20395;-60
2022/03/12 19:18:12;;;;;;;;;;;;;;;12.41;100.00;99046.59;5025016;28;21022;-60
2022/03/12 19:20:38;;;;;;;;;;;;;;;12.53;100.00;99044.38;5020565;28;20323;-61
2022/03/12 19:26:17;;;;;;;;;;;;;;;12.66;100.00;99033.56;5020539;28;20331;-61
2022/03/12 19:28:44;;;;;;;;;;;;;;;12.69;100.00;99034.25;5059605;22;19978;-86
2022/03/12 19:31:10;;;;;;;;;;;;;;;12.27;100.00;99034.19;5028382;28;19917;-86
2022/03/12 19:33:37;;;;;;;;;;;;;;;12.31;100.00;99038.34;5046171;28;19913;-88
2022/03/12 19:36:02;;;;;;;;;;;;;;;12.08;100.00;99029.72;5046204;28;19920;-89
2022/03/12 19:38:28;;;;;;;;;;;;;;;12.05;100.00;99029.88;5027719;28;19929;-84
2022/03/12 19:40:56;;;;;;;;;;;;;;;11.79;100.00;99022.19;5048174;28;19940;-87
2022/03/12 19:43:22;;;;;;;;;;;;;;;11.76;100.00;99007.69;5035993;28;19927;-87
2022/03/12 19:45:47;;;;;;;;;;;;;;;12.05;100.00;99018.69;5053966;28;19916;-86
2022/03/12 19:48:13;;;;;;;;;;;;;;;11.88;100.00;99021.91;5032645;28;19920;-87
2022/03/12 19:50:38;;;;;;;;;;;;;;;11.70;100.00;99023.41;5049585;28;19916;-86
2022/03/12 19:53:05;;;;;;;;;;;;;;;11.83;100.00;99014.28;5051759;28;19931;-86
2022/03/12 19:55:30;;;;;;;;;;;;;;;11.57;100.00;99019.56;5055819;28;20402;-86
2022/03/12 19:57:57;;;;;;;;;;;;;;;11.91;100.00;99004.56;5044117;28;19912;-84
2022/03/12 20:00:22;;;;;;;;;;;;;;;12.16;100.00;99018.28;5039114;28;19920;-86
2022/03/12 20:02:47;;;;;;;;;;;;;;;11.93;100.00;99004.53;5041649;28;19973;-88
2022/03/12 20:05:18;;;;;;;;;;;;;;;11.71;100.00;99009.59;5070256;28;19971;-85
2022/03/12 20:07:44;;;;;;;;;;;;;;;11.57;100.00;99004.09;5048698;28;19921;-88
2022/03/12 20:10:10;;;;;;;;;;;;;;;11.65;100.00;99015.81;5044605;28;20303;-87
2022/03/12 20:12:36;;;;;;;;;;;;;;;11.96;100.00;99003.56;5028150;28;20440;-84
2022/03/12 20:15:02;;;;;;;;;;;;;;;11.98;100.00;99007.75;5017632;28;19970;-85
2022/03/12 20:17:28;;;;;;;;;;;;;;;12.06;100.00;98997.97;5065921;28;19973;-87
2022/03/12 20:19:54;;;;;;;;;;;;;;;12.00;100.00;99000.81;5048774;28;19959;-87
2022/03/12 20:22:19;;;;;;;;;;;;;;;11.93;100.00;99001.94;5029625;28;20584;-87
2022/03/12 20:24:46;;;;;;;;;;;;;;;12.36;100.00;99005.44;5048238;28;19956;-87
2022/03/12 20:27:14;;;;;;;;;;;;;;;11.91;100.00;99012.31;5015964;28;19917;-86
2022/03/12 20:29:40;;;;;;;;;;;;;;;11.90;100.00;99012.34;5031282;28;19932;-85
2022/03/12 20:32:06;;;;;;;;;;;;;;;11.99;100.00;99018.94;5051434;28;19920;-87
2022/03/12 20:34:31;;;;;;;;;;;;;;;12.26;100.00;99011.88;5082361;28;19927;-86
2022/03/12 20:36:57;;;;;;;;;;;;;;;12.48;100.00;99010.13;5064356;28;20003;-85
2022/03/12 20:39:22;;;;;;;;;;;;;;;12.28;100.00;99010.06;5047694;28;19916;-85
2022/03/12 20:41:48;;;;;;;;;;;;;;;12.39;100.00;99018.25;5047960;28;19924;-86
2022/03/12 20:44:17;;;;;;;;;;;;;;;12.31;100.00;99015.13;5047872;28;19916;-86
2022/03/12 20:46:42;;;;;;;;;;;;;;;12.65;99.52;99011.19;5031128;28;19932;-84
2022/03/12 20:49:08;;;;;;;;;;;;;;;12.62;95.47;99013.91;5066772;28;20375;-87
2022/03/12 20:51:34;;;;;;;;;;;;;;;13.01;97.35;99008.00;5035454;28;19916;-87
2022/03/12 20:54:00;;;;;;;;;;;;;;;12.88;96.64;99000.75;5043309;28;20310;-87
2022/03/12 20:56:29;;;;;;;;;;;;;;;12.59;98.00;99012.31;5063907;28;19916;-86
2022/03/12 20:58:55;;;;;;;;;;;;;;;12.65;96.08;99008.63;5051620;28;19923;-86
2022/03/12 21:01:22;;;;;;;;;;;;;;;12.36;96.58;99013.19;5060077;28;19920;-89
2022/03/12 21:03:48;;;;;;;;;;;;;;;12.72;95.80;99015.22;5082195;28;19963;-90
2022/03/12 21:06:13;;;;;;;;;;;;;;;12.19;96.86;99013.00;5064152;28;19916;-87
2022/03/12 21:08:38;;;;;;;;;;;;;;;12.73;96.74;99019.50;5084295;28;19909;-93
2022/03/12 21:11:04;;;;;;;;;;;;;;;12.79;95.51;99015.81;5051357;28;19959;-86
2022/03/12 21:13:29;;;;;;;;;;;;;;;12.53;97.73;99021.13;5057309;28;19920;-85
2022/03/12 21:15:55;;;;;;;;;;;;;;;12.89;96.55;99014.53;5072868;28;19991;-86
2022/03/12 21:18:20;;;;;;;;;;;;;;;12.82;96.07;99007.91;5067238;28;19920;-85
2022/03/12 21:20:45;;;;;;;;;;;;;;;12.00;97.37;99020.63;5050317;28;20276;-86
2022/03/12 21:23:10;;;;;;;;;;;;;;;12.51;97.56;99020.34;5066349;28;19941;-85
2022/03/12 21:25:39;;;;;;;;;;;;;;;13.09;94.41;99013.69;5049851;28;19913;-87
2022/03/12 21:28:05;;;;;;;;;;;;;;;13.44;90.84;99008.81;5048852;28;19970;-85
2022/03/12 21:30:30;;;;;;;;;;;;;;;13.27;91.39;99001.72;5069238;28;19920;-85
2022/03/12 21:32:56;;;;;;;;;;;;;;;12.42;91.79;99005.19;5039203;28;19920;-84
2022/03/12 21:35:21;;;;;;;;;;;;;;;12.72;91.76;99010.88;5044125;28;19966;-85
2022/03/12 21:37:48;;;;;;;;;;;;;;;13.33;92.04;99010.09;5051993;28;19962;-85
2022/03/12 21:40:20;;;;;;;;;;;;;;;13.12;92.01;99014.41;5062034;28;19967;-84
2022/03/12 21:42:45;;;;;;;;;;;;;;;12.79;92.11;99002.88;5054372;28;21356;-87
2022/03/12 21:45:13;;;;;;;;;;;;;;;13.04;91.48;99011.28;5073107;28;19933;-86
2022/03/12 21:47:39;;;;;;;;;;;;;;;12.68;94.33;99004.19;5054948;28;19920;-87
2022/03/12 21:50:05;;;;;;;;;;;;;;;13.11;91.90;99011.88;5068882;28;20379;-87
2022/03/12 21:52:30;;;;;;;;;;;;;;;13.39;88.85;99001.25;5065880;28;19959;-85
2022/03/12 21:54:56;;;;;;;;;;;;;;;13.29;88.63;98995.59;5034443;28;19970;-86
2022/03/12 21:57:21;;;;;;;;;;;;;;;13.23;89.86;98995.00;5049065;28;19916;-86
2022/03/12 21:59:47;;;;;;;;;;;;;;;12.72;89.36;98999.72;5034473;28;19959;-87
2022/03/12 22:02:12;;;;;;;;;;;;;;;12.19;93.53;99000.94;5034376;28;19968;-88
2022/03/12 22:04:38;;;;;;;;;;;;;;;12.61;93.03;98996.72;5046224;28;19920;-85
2022/03/12 22:07:06;;;;;;;;;;;;;;;12.61;94.01;98996.72;5048412;28;20417;-87
2022/03/12 22:09:32;;;;;;;;;;;;;;;12.31;94.87;98999.63;5031153;28;20441;-86
2022/03/12 22:11:57;;;;;;;;;;;;;;;11.89;96.84;98995.22;5044886;28;19999;-85
2022/03/12 22:14:23;;;;;;;;;;;;;;;12.17;97.98;98995.00;5076843;28;20375;-87
2022/03/12 22:16:48;;;;;;;;;;;;;;;11.97;99.16;98995.75;5040262;28;20380;-86
2022/03/12 22:19:13;;;;;;;;;;;;;;;11.67;97.48;98992.53;5062512;28;19926;-87
2022/03/12 22:21:39;;;;;;;;;;;;;;;11.87;99.10;98987.50;5051289;28;19920;-87
2022/03/12 22:24:05;;;;;;;;;;;;;;;11.87;97.79;98987.50;5034449;28;20628;-86
2022/03/12 22:26:30;;;;;;;;;;;;;;;11.69;99.45;98986.41;5034631;28;20423;-85
2022/03/12 22:28:55;;;;;;;;;;;;;;;11.46;98.40;98983.84;5048982;28;19947;-87
2022/03/12 22:31:20;;;;;;;;;;;;;;;11.36;99.49;98982.47;5062574;28;19920;-84
2022/03/12 22:33:46;;;;;;;;;;;;;;;11.38;100.00;98983.25;5048727;28;20003;-86
2022/03/12 22:36:11;;;;;;;;;;;;;;;11.43;100.00;98983.97;5045425;28;19916;-85
2022/03/12 22:38:39;;;;;;;;;;;;;;;10.87;100.00;98974.72;5033740;28;19916;-85
2022/03/12 22:41:05;;;;;;;;;;;;;;;11.49;100.00;98982.00;5064554;28;20398;-90
2022/03/12 22:43:31;;;;;;;;;;;;;;;11.35;97.31;98960.19;5064124;28;19912;-85
2022/03/12 22:45:57;;;;;;;;;;;;;;;11.77;96.72;98956.91;5047712;28;19961;-85
2022/03/12 22:48:22;;;;;;;;;;;;;;;11.20;97.48;98962.41;5063663;28;19930;-87
2022/03/12 22:50:49;;;;;;;;;;;;;;;11.31;99.27;98962.00;5082131;28;19934;-87
2022/03/12 22:53:14;;;;;;;;;;;;;;;11.51;98.87;98953.56;5080983;28;19935;-86
2022/03/12 22:55:39;;;;;;;;;;;;;;;11.06;97.83;98960.31;5065490;28;19916;-85
2022/03/12 22:58:05;;;;;;;;;;;;;;;11.35;98.22;98945.53;5049953;28;19912;-86
2022/03/12 23:00:36;;;;;;;;;;;;;;;10.73;99.36;98946.84;5044749;28;19951;-85
2022/03/12 23:03:02;;;;;;;;;;;;;;;11.13;96.17;98948.06;5082764;28;19920;-86
2022/03/12 23:10:55;;;;;;;;;;;;;;;11.11;97.32;98952.44;5083266;28;19990;-85
2022/03/12 23:13:20;;;;;;;;;;;;;;;10.88;94.28;98940.34;5062356;28;20379;-84
2022/03/12 23:15:46;;;;;;;;;;;;;;;10.85;94.30;98945.59;5053352;28;19912;-85
2022/03/12 23:18:11;;;;;;;;;;;;;;;11.08;96.45;98952.50;5048485;28;19916;-86
2022/03/12 23:20:40;;;;;;;;;;;;;;;11.07;96.60;98950.84;5082764;28;19912;-89
2022/03/12 23:23:07;;;;;;;;;;;;;;;10.96;95.63;98943.47;5049488;28;19920;-85
2022/03/12 23:25:33;;;;;;;;;;;;;;;11.01;93.90;98941.56;5062463;28;19916;-87
2022/03/12 23:27:58;;;;;;;;;;;;;;;10.99;93.00;98945.97;5048284;28;19921;-88
2022/03/12 23:30:24;;;;;;;;;;;;;;;10.65;94.09;98941.97;5066994;28;19924;-84
2022/03/12 23:32:50;;;;;;;;;;;;;;;11.05;96.28;98939.75;5080386;28;19967;-87
2022/03/12 23:35:15;;;;;;;;;;;;;;;11.19;94.00;98936.69;5050307;28;19916;-85
2022/03/12 23:37:43;;;;;;;;;;;;;;;11.04;92.52;98938.91;5033810;28;20383;-86
2022/03/12 23:40:09;;;;;;;;;;;;;;;11.05;93.12;98932.84;5034655;28;19930;-87
2022/03/12 23:42:36;;;;;;;;;;;;;;;11.31;91.10;98933.66;5048463;28;19917;-86
2022/03/12 23:45:02;;;;;;;;;;;;;;;10.56;92.44;98933.66;5047731;28;20007;-86
2022/03/12 23:47:28;;;;;;;;;;;;;;;11.02;92.79;98932.97;5035770;28;19998;-89
2022/03/12 23:49:53;;;;;;;;;;;;;;;10.56;92.80;98933.66;5062833;28;19920;-87
2022/03/12 23:52:26;;;;;;;;;;;;;;;10.29;92.80;98931.13;5037155;28;19927;-87
2022/03/12 23:55:02;;;;;;;;;;;;;;;10.68;91.72;98933.28;5043753;28;19979;-87
2022/03/12 23:57:31;;;;;;;;;;;;;;;11.23;92.24;98918.47;5066468;28;20337;-87
